sensor_id;sensor_type;location;lat;lon;timestamp;P1;durP1;ratioP1;P2;durP2;ratioP2
77010;SDS011;65945;53.148;17.956;2023-03-03T00:00:54;59.90;;;21.20;;
77010;SDS011;65945;53.148;17.956;2023-03-03T00:03:21;51.90;;;20.70;;
77010;SDS011;65945;53.148;17.956;2023-03-03T00:05:50;59.70;;;20.90;;
77010;SDS011;65945;53.148;17.956;2023-03-03T00:08:17;59.40;;;20.90;;
77010;SDS011;65945;53.148;17.956;2023-03-03T00:10:45;43.40;;;17.20;;
77010;SDS011;65945;53.148;17.956;2023-03-03T00:13:16;37.40;;;15.00;;
77010;SDS011;65945;53.148;17.956;2023-03-03T00:15:46;48.00;;;16.50;;
77010;SDS011;65945;53.148;17.956;2023-03-03T00:18:17;48.70;;;19.10;;
77010;SDS011;65945;53.148;17.956;2023-03-03T00:20:49;47.50;;;16.80;;
77010;SDS011;65945;53.148;17.956;2023-03-03T00:26:15;40.90;;;15.60;;
77010;SDS011;65945;53.148;17.956;2023-03-03T00:28:48;56.30;;;17.90;;
77010;SDS011;65945;53.148;17.956;2023-03-03T00:31:21;31.30;;;10.60;;
77010;SDS011;65945;53.148;17.956;2023-03-03T00:34:09;30.80;;;11.40;;
77010;SDS011;65945;53.148;17.956;2023-03-03T00:36:42;34.40;;;11.80;;
77010;SDS011;65945;53.148;17.956;2023-03-03T00:39:32;42.60;;;14.20;;
77010;SDS011;65945;53.148;17.956;2023-03-03T00:42:01;45.30;;;15.50;;
77010;SDS011;65945;53.148;17.956;2023-03-03T00:52:34;51.00;;;16.70;;
77010;SDS011;65945;53.148;17.956;2023-03-03T00:55:03;48.30;;;18.10;;
77010;SDS011;65945;53.148;17.956;2023-03-03T00:57:31;51.90;;;17.20;;
77010;SDS011;65945;53.148;17.956;2023-03-03T00:59:58;58.80;;;18.00;;
77010;SDS011;65945;53.148;17.956;2023-03-03T01:02:26;48.90;;;17.30;;
77010;SDS011;65945;53.148;17.956;2023-03-03T01:04:52;56.20;;;20.70;;
77010;SDS011;65945;53.148;17.956;2023-03-03T01:07:21;45.20;;;17.60;;
77010;SDS011;65945;53.148;17.956;2023-03-03T01:09:48;42.50;;;16.70;;
77010;SDS011;65945;53.148;17.956;2023-03-03T01:12:15;50.30;;;17.70;;
77010;SDS011;65945;53.148;17.956;2023-03-03T01:14:42;49.10;;;18.40;;
77010;SDS011;65945;53.148;17.956;2023-03-03T01:17:10;44.20;;;17.20;;
77010;SDS011;65945;53.148;17.956;2023-03-03T01:19:37;43.90;;;16.00;;
77010;SDS011;65945;53.148;17.956;2023-03-03T01:22:03;38.00;;;14.20;;
77010;SDS011;65945;53.148;17.956;2023-03-03T01:24:30;29.50;;;11.30;;
77010;SDS011;65945;53.148;17.956;2023-03-03T01:26:57;28.30;;;10.00;;
77010;SDS011;65945;53.148;17.956;2023-03-03T01:29:23;29.80;;;12.50;;
77010;SDS011;65945;53.148;17.956;2023-03-03T01:31:50;34.50;;;13.20;;
77010;SDS011;65945;53.148;17.956;2023-03-03T01:34:17;29.40;;;10.90;;
77010;SDS011;65945;53.148;17.956;2023-03-03T01:36:44;24.70;;;9.20;;
77010;SDS011;65945;53.148;17.956;2023-03-03T01:39:10;26.80;;;11.30;;
77010;SDS011;65945;53.148;17.956;2023-03-03T01:41:37;23.50;;;9.50;;
77010;SDS011;65945;53.148;17.956;2023-03-03T01:44:04;23.20;;;9.00;;
77010;SDS011;65945;53.148;17.956;2023-03-03T01:49:15;25.10;;;10.50;;
77010;SDS011;65945;53.148;17.956;2023-03-03T01:51:49;24.00;;;9.10;;
77010;SDS011;65945;53.148;17.956;2023-03-03T01:54:27;24.40;;;10.00;;
77010;SDS011;65945;53.148;17.956;2023-03-03T01:57:00;25.30;;;10.10;;
77010;SDS011;65945;53.148;17.956;2023-03-03T01:59:30;25.70;;;10.70;;
77010;SDS011;65945;53.148;17.956;2023-03-03T02:02:02;30.80;;;11.90;;
77010;SDS011;65945;53.148;17.956;2023-03-03T02:04:30;27.50;;;10.90;;
77010;SDS011;65945;53.148;17.956;2023-03-03T02:06:57;26.30;;;10.70;;
77010;SDS011;65945;53.148;17.956;2023-03-03T02:12:06;27.20;;;10.20;;
77010;SDS011;65945;53.148;17.956;2023-03-03T02:14:36;25.80;;;9.70;;
77010;SDS011;65945;53.148;17.956;2023-03-03T02:17:03;15.90;;;6.60;;
77010;SDS011;65945;53.148;17.956;2023-03-03T02:22:19;16.10;;;6.60;;
77010;SDS011;65945;53.148;17.956;2023-03-03T02:24:53;24.10;;;9.10;;
77010;SDS011;65945;53.148;17.956;2023-03-03T02:27:26;12.50;;;4.30;;
77010;SDS011;65945;53.148;17.956;2023-03-03T02:29:56;27.20;;;11.00;;
77010;SDS011;65945;53.148;17.956;2023-03-03T02:32:23;26.40;;;10.70;;
77010;SDS011;65945;53.148;17.956;2023-03-03T02:34:51;20.30;;;8.10;;
77010;SDS011;65945;53.148;17.956;2023-03-03T02:37:18;28.00;;;12.00;;
77010;SDS011;65945;53.148;17.956;2023-03-03T02:39:45;23.80;;;10.60;;
77010;SDS011;65945;53.148;17.956;2023-03-03T02:42:13;31.80;;;11.90;;
77010;SDS011;65945;53.148;17.956;2023-03-03T02:44:52;30.70;;;10.60;;
77010;SDS011;65945;53.148;17.956;2023-03-03T02:47:19;24.50;;;9.30;;
77010;SDS011;65945;53.148;17.956;2023-03-03T02:49:45;22.60;;;9.30;;
77010;SDS011;65945;53.148;17.956;2023-03-03T02:52:12;26.80;;;11.50;;
77010;SDS011;65945;53.148;17.956;2023-03-03T02:54:41;22.80;;;10.40;;
77010;SDS011;65945;53.148;17.956;2023-03-03T02:57:08;25.10;;;10.10;;
77010;SDS011;65945;53.148;17.956;2023-03-03T02:59:34;25.50;;;10.50;;
77010;SDS011;65945;53.148;17.956;2023-03-03T03:02:07;27.90;;;12.00;;
77010;SDS011;65945;53.148;17.956;2023-03-03T03:04:34;25.70;;;10.00;;
77010;SDS011;65945;53.148;17.956;2023-03-03T03:07:01;28.40;;;11.20;;
77010;SDS011;65945;53.148;17.956;2023-03-03T03:09:29;33.30;;;13.20;;
77010;SDS011;65945;53.148;17.956;2023-03-03T03:11:56;32.50;;;10.80;;
77010;SDS011;65945;53.148;17.956;2023-03-03T03:14:25;28.80;;;11.50;;
77010;SDS011;65945;53.148;17.956;2023-03-03T03:16:52;29.60;;;10.40;;
77010;SDS011;65945;53.148;17.956;2023-03-03T03:19:19;14.60;;;5.80;;
77010;SDS011;65945;53.148;17.956;2023-03-03T03:21:46;27.90;;;10.10;;
77010;SDS011;65945;53.148;17.956;2023-03-03T03:24:13;21.20;;;9.50;;
77010;SDS011;65945;53.148;17.956;2023-03-03T03:26:43;27.00;;;10.70;;
77010;SDS011;65945;53.148;17.956;2023-03-03T03:29:09;28.90;;;10.70;;
77010;SDS011;65945;53.148;17.956;2023-03-03T03:31:36;27.40;;;10.90;;
77010;SDS011;65945;53.148;17.956;2023-03-03T03:34:04;29.40;;;10.50;;
77010;SDS011;65945;53.148;17.956;2023-03-03T03:36:31;22.60;;;8.80;;
77010;SDS011;65945;53.148;17.956;2023-03-03T03:38:58;21.50;;;9.30;;
77010;SDS011;65945;53.148;17.956;2023-03-03T03:41:28;21.20;;;9.00;;
77010;SDS011;65945;53.148;17.956;2023-03-03T03:43:55;24.40;;;10.10;;
77010;SDS011;65945;53.148;17.956;2023-03-03T03:46:22;28.50;;;9.60;;
77010;SDS011;65945;53.148;17.956;2023-03-03T03:48:49;24.50;;;9.90;;
77010;SDS011;65945;53.148;17.956;2023-03-03T03:51:17;21.60;;;8.00;;
77010;SDS011;65945;53.148;17.956;2023-03-03T03:53:44;18.30;;;7.40;;
77010;SDS011;65945;53.148;17.956;2023-03-03T03:56:11;29.30;;;10.30;;
77010;SDS011;65945;53.148;17.956;2023-03-03T03:58:39;25.30;;;10.10;;
77010;SDS011;65945;53.148;17.956;2023-03-03T04:01:07;30.10;;;11.60;;
77010;SDS011;65945;53.148;17.956;2023-03-03T04:03:39;22.60;;;8.90;;
77010;SDS011;65945;53.148;17.956;2023-03-03T04:06:08;24.30;;;10.10;;
77010;SDS011;65945;53.148;17.956;2023-03-03T04:08:35;22.00;;;9.00;;
77010;SDS011;65945;53.148;17.956;2023-03-03T04:11:02;24.20;;;7.50;;
77010;SDS011;65945;53.148;17.956;2023-03-03T04:13:29;16.70;;;8.00;;
77010;SDS011;65945;53.148;17.956;2023-03-03T04:15:57;21.00;;;9.00;;
77010;SDS011;65945;53.148;17.956;2023-03-03T04:18:24;26.00;;;10.20;;
77010;SDS011;65945;53.148;17.956;2023-03-03T04:20:51;23.30;;;9.70;;
77010;SDS011;65945;53.148;17.956;2023-03-03T04:23:19;23.50;;;8.60;;
77010;SDS011;65945;53.148;17.956;2023-03-03T04:25:47;17.70;;;7.50;;
77010;SDS011;65945;53.148;17.956;2023-03-03T04:28:15;21.10;;;7.60;;
77010;SDS011;65945;53.148;17.956;2023-03-03T04:30:43;25.40;;;9.70;;
77010;SDS011;65945;53.148;17.956;2023-03-03T04:33:11;25.60;;;10.30;;
77010;SDS011;65945;53.148;17.956;2023-03-03T04:35:38;32.10;;;11.70;;
77010;SDS011;65945;53.148;17.956;2023-03-03T04:38:05;29.20;;;10.10;;
77010;SDS011;65945;53.148;17.956;2023-03-03T04:40:33;29.30;;;11.60;;
77010;SDS011;65945;53.148;17.956;2023-03-03T04:43:00;29.40;;;11.10;;
77010;SDS011;65945;53.148;17.956;2023-03-03T04:45:27;31.00;;;10.90;;
77010;SDS011;65945;53.148;17.956;2023-03-03T04:47:54;30.70;;;11.30;;
77010;SDS011;65945;53.148;17.956;2023-03-03T04:50:21;32.10;;;11.20;;
77010;SDS011;65945;53.148;17.956;2023-03-03T04:52:48;31.80;;;11.20;;
77010;SDS011;65945;53.148;17.956;2023-03-03T04:55:15;27.70;;;10.30;;
77010;SDS011;65945;53.148;17.956;2023-03-03T04:57:42;29.50;;;9.50;;
77010;SDS011;65945;53.148;17.956;2023-03-03T05:00:10;30.10;;;11.00;;
77010;SDS011;65945;53.148;17.956;2023-03-03T05:02:40;30.30;;;11.80;;
77010;SDS011;65945;53.148;17.956;2023-03-03T05:05:08;23.30;;;9.60;;
77010;SDS011;65945;53.148;17.956;2023-03-03T05:07:35;28.40;;;10.70;;
77010;SDS011;65945;53.148;17.956;2023-03-03T05:10:02;29.70;;;11.70;;
77010;SDS011;65945;53.148;17.956;2023-03-03T05:12:29;26.10;;;10.10;;
77010;SDS011;65945;53.148;17.956;2023-03-03T05:14:56;21.30;;;8.90;;
77010;SDS011;65945;53.148;17.956;2023-03-03T05:17:22;14.50;;;6.90;;
77010;SDS011;65945;53.148;17.956;2023-03-03T05:19:49;18.20;;;7.30;;
77010;SDS011;65945;53.148;17.956;2023-03-03T05:22:15;18.00;;;7.90;;
77010;SDS011;65945;53.148;17.956;2023-03-03T05:24:42;13.50;;;6.10;;
77010;SDS011;65945;53.148;17.956;2023-03-03T05:27:09;15.70;;;7.00;;
77010;SDS011;65945;53.148;17.956;2023-03-03T05:29:37;17.10;;;7.60;;
77010;SDS011;65945;53.148;17.956;2023-03-03T05:32:03;16.70;;;7.40;;
77010;SDS011;65945;53.148;17.956;2023-03-03T05:34:30;16.60;;;7.00;;
77010;SDS011;65945;53.148;17.956;2023-03-03T05:36:57;19.00;;;6.70;;
77010;SDS011;65945;53.148;17.956;2023-03-03T05:39:24;19.10;;;6.90;;
77010;SDS011;65945;53.148;17.956;2023-03-03T05:41:51;19.20;;;7.10;;
77010;SDS011;65945;53.148;17.956;2023-03-03T05:44:17;15.80;;;6.50;;
77010;SDS011;65945;53.148;17.956;2023-03-03T05:46:44;15.40;;;6.40;;
77010;SDS011;65945;53.148;17.956;2023-03-03T05:49:10;21.00;;;8.00;;
77010;SDS011;65945;53.148;17.956;2023-03-03T05:51:37;15.30;;;6.50;;
77010;SDS011;65945;53.148;17.956;2023-03-03T05:54:04;19.90;;;9.00;;
77010;SDS011;65945;53.148;17.956;2023-03-03T05:56:30;16.80;;;7.70;;
77010;SDS011;65945;53.148;17.956;2023-03-03T05:58:57;22.10;;;8.60;;
77010;SDS011;65945;53.148;17.956;2023-03-03T06:01:24;21.20;;;8.80;;
77010;SDS011;65945;53.148;17.956;2023-03-03T06:03:50;16.10;;;6.50;;
77010;SDS011;65945;53.148;17.956;2023-03-03T06:06:17;11.60;;;5.20;;
77010;SDS011;65945;53.148;17.956;2023-03-03T06:08:44;11.70;;;5.10;;
77010;SDS011;65945;53.148;17.956;2023-03-03T06:11:11;14.40;;;6.80;;
77010;SDS011;65945;53.148;17.956;2023-03-03T06:13:39;19.60;;;8.40;;
77010;SDS011;65945;53.148;17.956;2023-03-03T06:16:07;19.50;;;6.40;;
77010;SDS011;65945;53.148;17.956;2023-03-03T06:18:34;14.90;;;6.50;;
77010;SDS011;65945;53.148;17.956;2023-03-03T06:21:01;20.00;;;7.70;;
77010;SDS011;65945;53.148;17.956;2023-03-03T06:23:28;20.30;;;9.10;;
77010;SDS011;65945;53.148;17.956;2023-03-03T06:25:54;17.00;;;7.70;;
77010;SDS011;65945;53.148;17.956;2023-03-03T06:28:21;14.70;;;6.40;;
77010;SDS011;65945;53.148;17.956;2023-03-03T06:30:48;20.90;;;8.30;;
77010;SDS011;65945;53.148;17.956;2023-03-03T06:33:18;15.60;;;7.40;;
77010;SDS011;65945;53.148;17.956;2023-03-03T06:35:51;14.70;;;6.20;;
77010;SDS011;65945;53.148;17.956;2023-03-03T06:38:19;20.70;;;9.20;;
77010;SDS011;65945;53.148;17.956;2023-03-03T06:40:46;21.10;;;8.60;;
77010;SDS011;65945;53.148;17.956;2023-03-03T06:43:13;21.10;;;8.40;;
77010;SDS011;65945;53.148;17.956;2023-03-03T06:45:40;19.30;;;8.60;;
77010;SDS011;65945;53.148;17.956;2023-03-03T06:48:06;20.50;;;8.60;;
77010;SDS011;65945;53.148;17.956;2023-03-03T06:50:33;22.90;;;10.30;;
77010;SDS011;65945;53.148;17.956;2023-03-03T06:55:37;21.00;;;9.30;;
77010;SDS011;65945;53.148;17.956;2023-03-03T06:58:07;25.20;;;10.60;;
77010;SDS011;65945;53.148;17.956;2023-03-03T07:00:40;25.50;;;10.60;;
77010;SDS011;65945;53.148;17.956;2023-03-03T07:03:35;20.50;;;7.90;;
77010;SDS011;65945;53.148;17.956;2023-03-03T07:06:04;27.80;;;10.20;;
77010;SDS011;65945;53.148;17.956;2023-03-03T07:08:49;28.00;;;11.40;;
77010;SDS011;65945;53.148;17.956;2023-03-03T07:11:20;27.80;;;11.10;;
77010;SDS011;65945;53.148;17.956;2023-03-03T07:13:49;24.70;;;8.80;;
77010;SDS011;65945;53.148;17.956;2023-03-03T07:16:18;30.40;;;10.40;;
77010;SDS011;65945;53.148;17.956;2023-03-03T07:21:21;23.70;;;10.70;;
77010;SDS011;65945;53.148;17.956;2023-03-03T07:23:51;25.30;;;10.60;;
77010;SDS011;65945;53.148;17.956;2023-03-03T07:26:20;23.80;;;9.20;;
77010;SDS011;65945;53.148;17.956;2023-03-03T07:28:52;26.30;;;10.90;;
77010;SDS011;65945;53.148;17.956;2023-03-03T07:31:26;31.70;;;12.70;;
77010;SDS011;65945;53.148;17.956;2023-03-03T07:34:01;29.70;;;10.70;;
77010;SDS011;65945;53.148;17.956;2023-03-03T07:36:39;27.80;;;10.80;;
77010;SDS011;65945;53.148;17.956;2023-03-03T07:44:49;25.00;;;9.90;;
77010;SDS011;65945;53.148;17.956;2023-03-03T07:47:22;27.20;;;10.70;;
77010;SDS011;65945;53.148;17.956;2023-03-03T07:49:49;19.30;;;7.30;;
77010;SDS011;65945;53.148;17.956;2023-03-03T07:52:21;26.00;;;10.60;;
77010;SDS011;65945;53.148;17.956;2023-03-03T07:55:20;27.70;;;10.40;;
77010;SDS011;65945;53.148;17.956;2023-03-03T07:58:33;14.80;;;6.50;;
77010;SDS011;65945;53.148;17.956;2023-03-03T08:01:30;25.00;;;9.60;;
77010;SDS011;65945;53.148;17.956;2023-03-03T08:04:14;27.30;;;10.00;;
77010;SDS011;65945;53.148;17.956;2023-03-03T08:07:02;18.00;;;7.60;;
77010;SDS011;65945;53.148;17.956;2023-03-03T08:09:30;12.40;;;5.60;;
77010;SDS011;65945;53.148;17.956;2023-03-03T08:14:35;13.70;;;5.50;;
77010;SDS011;65945;53.148;17.956;2023-03-03T08:17:12;13.30;;;5.90;;
77010;SDS011;65945;53.148;17.956;2023-03-03T08:19:39;12.60;;;5.10;;
77010;SDS011;65945;53.148;17.956;2023-03-03T08:22:13;9.70;;;4.30;;
77010;SDS011;65945;53.148;17.956;2023-03-03T08:24:43;9.40;;;4.30;;
77010;SDS011;65945;53.148;17.956;2023-03-03T08:27:09;12.80;;;5.30;;
77010;SDS011;65945;53.148;17.956;2023-03-03T08:29:37;11.40;;;4.50;;
77010;SDS011;65945;53.148;17.956;2023-03-03T08:32:03;11.80;;;4.20;;
77010;SDS011;65945;53.148;17.956;2023-03-03T08:34:30;9.40;;;4.80;;
77010;SDS011;65945;53.148;17.956;2023-03-03T08:36:57;12.20;;;5.50;;
77010;SDS011;65945;53.148;17.956;2023-03-03T08:39:23;10.60;;;4.60;;
77010;SDS011;65945;53.148;17.956;2023-03-03T08:41:50;10.80;;;5.50;;
77010;SDS011;65945;53.148;17.956;2023-03-03T08:44:17;15.00;;;6.40;;
77010;SDS011;65945;53.148;17.956;2023-03-03T08:46:45;12.80;;;5.80;;
77010;SDS011;65945;53.148;17.956;2023-03-03T08:49:11;18.30;;;6.80;;
77010;SDS011;65945;53.148;17.956;2023-03-03T08:51:38;10.60;;;4.60;;
77010;SDS011;65945;53.148;17.956;2023-03-03T08:54:05;12.30;;;6.00;;
77010;SDS011;65945;53.148;17.956;2023-03-03T08:56:33;11.90;;;5.70;;
77010;SDS011;65945;53.148;17.956;2023-03-03T08:58:59;10.70;;;4.70;;
77010;SDS011;65945;53.148;17.956;2023-03-03T09:01:26;13.80;;;6.70;;
77010;SDS011;65945;53.148;17.956;2023-03-03T09:03:53;17.90;;;8.30;;
77010;SDS011;65945;53.148;17.956;2023-03-03T09:06:20;15.00;;;7.00;;
77010;SDS011;65945;53.148;17.956;2023-03-03T09:08:47;9.40;;;5.00;;
77010;SDS011;65945;53.148;17.956;2023-03-03T09:11:17;18.40;;;8.10;;
77010;SDS011;65945;53.148;17.956;2023-03-03T09:13:49;17.10;;;6.60;;
77010;SDS011;65945;53.148;17.956;2023-03-03T09:16:18;16.20;;;7.80;;
77010;SDS011;65945;53.148;17.956;2023-03-03T09:18:47;16.30;;;7.50;;
77010;SDS011;65945;53.148;17.956;2023-03-03T09:21:18;12.30;;;6.00;;
77010;SDS011;65945;53.148;17.956;2023-03-03T09:23:58;15.40;;;7.20;;
77010;SDS011;65945;53.148;17.956;2023-03-03T09:32:06;11.80;;;6.10;;
77010;SDS011;65945;53.148;17.956;2023-03-03T09:34:37;15.80;;;6.20;;
77010;SDS011;65945;53.148;17.956;2023-03-03T09:37:21;14.60;;;5.80;;
77010;SDS011;65945;53.148;17.956;2023-03-03T09:39:52;12.20;;;5.70;;
77010;SDS011;65945;53.148;17.956;2023-03-03T09:42:23;12.30;;;5.40;;
77010;SDS011;65945;53.148;17.956;2023-03-03T09:48:00;11.70;;;5.30;;
77010;SDS011;65945;53.148;17.956;2023-03-03T10:01:48;11.10;;;4.50;;
77010;SDS011;65945;53.148;17.956;2023-03-03T10:04:22;10.80;;;5.20;;
77010;SDS011;65945;53.148;17.956;2023-03-03T10:06:53;12.70;;;6.30;;
77010;SDS011;65945;53.148;17.956;2023-03-03T10:12:26;10.80;;;4.90;;
77010;SDS011;65945;53.148;17.956;2023-03-03T10:15:03;9.90;;;3.60;;
77010;SDS011;65945;53.148;17.956;2023-03-03T10:17:50;11.50;;;5.00;;
77010;SDS011;65945;53.148;17.956;2023-03-03T10:34:59;18.80;;;7.10;;
77010;SDS011;65945;53.148;17.956;2023-03-03T10:40:13;15.10;;;7.30;;
77010;SDS011;65945;53.148;17.956;2023-03-03T10:45:39;13.60;;;5.10;;
77010;SDS011;65945;53.148;17.956;2023-03-03T10:51:30;15.20;;;6.80;;
77010;SDS011;65945;53.148;17.956;2023-03-03T11:05:41;11.10;;;5.10;;
77010;SDS011;65945;53.148;17.956;2023-03-03T11:08:21;12.80;;;5.00;;
77010;SDS011;65945;53.148;17.956;2023-03-03T11:10:57;10.50;;;4.30;;
77010;SDS011;65945;53.148;17.956;2023-03-03T11:13:31;10.90;;;4.20;;
77010;SDS011;65945;53.148;17.956;2023-03-03T11:40:21;15.00;;;6.30;;
77010;SDS011;65945;53.148;17.956;2023-03-03T11:45:38;18.50;;;7.80;;
77010;SDS011;65945;53.148;17.956;2023-03-03T11:51:31;15.30;;;6.10;;
77010;SDS011;65945;53.148;17.956;2023-03-03T11:54:14;16.90;;;7.70;;
77010;SDS011;65945;53.148;17.956;2023-03-03T11:56:47;13.70;;;6.30;;
77010;SDS011;65945;53.148;17.956;2023-03-03T12:05:06;12.10;;;5.50;;
77010;SDS011;65945;53.148;17.956;2023-03-03T12:10:41;14.10;;;6.20;;
77010;SDS011;65945;53.148;17.956;2023-03-03T12:13:37;15.00;;;6.60;;
77010;SDS011;65945;53.148;17.956;2023-03-03T12:19:57;15.50;;;7.30;;
77010;SDS011;65945;53.148;17.956;2023-03-03T12:22:35;16.30;;;6.00;;
77010;SDS011;65945;53.148;17.956;2023-03-03T12:42:10;14.10;;;6.50;;
77010;SDS011;65945;53.148;17.956;2023-03-03T12:44:47;20.10;;;7.50;;
77010;SDS011;65945;53.148;17.956;2023-03-03T12:52:45;14.60;;;6.40;;
77010;SDS011;65945;53.148;17.956;2023-03-03T12:56:07;12.00;;;5.40;;
77010;SDS011;65945;53.148;17.956;2023-03-03T13:01:13;18.40;;;7.90;;
77010;SDS011;65945;53.148;17.956;2023-03-03T13:04:02;16.70;;;6.60;;
77010;SDS011;65945;53.148;17.956;2023-03-03T13:12:02;20.30;;;6.80;;
77010;SDS011;65945;53.148;17.956;2023-03-03T13:14:47;16.30;;;7.00;;
77010;SDS011;65945;53.148;17.956;2023-03-03T13:17:21;17.20;;;6.90;;
77010;SDS011;65945;53.148;17.956;2023-03-03T13:22:42;11.40;;;4.10;;
77010;SDS011;65945;53.148;17.956;2023-03-03T13:28:31;9.80;;;4.90;;
77010;SDS011;65945;53.148;17.956;2023-03-03T13:31:05;14.60;;;6.20;;
77010;SDS011;65945;53.148;17.956;2023-03-03T13:33:37;10.70;;;5.40;;
77010;SDS011;65945;53.148;17.956;2023-03-03T13:36:08;13.00;;;6.10;;
77010;SDS011;65945;53.148;17.956;2023-03-03T13:41:26;17.20;;;7.30;;
77010;SDS011;65945;53.148;17.956;2023-03-03T13:43:59;12.70;;;5.90;;
77010;SDS011;65945;53.148;17.956;2023-03-03T13:49:22;11.80;;;5.40;;
77010;SDS011;65945;53.148;17.956;2023-03-03T13:52:20;12.60;;;6.10;;
77010;SDS011;65945;53.148;17.956;2023-03-03T13:57:44;12.30;;;5.80;;
77010;SDS011;65945;53.148;17.956;2023-03-03T14:05:50;17.30;;;6.30;;
77010;SDS011;65945;53.148;17.956;2023-03-03T14:16:43;13.90;;;6.30;;
77010;SDS011;65945;53.148;17.956;2023-03-03T14:19:43;16.90;;;7.90;;
77010;SDS011;65945;53.148;17.956;2023-03-03T14:25:15;14.60;;;5.90;;
77010;SDS011;65945;53.148;17.956;2023-03-03T14:35:36;14.30;;;6.10;;
77010;SDS011;65945;53.148;17.956;2023-03-03T14:40:44;12.00;;;5.40;;
77010;SDS011;65945;53.148;17.956;2023-03-03T14:48:53;14.80;;;6.70;;
77010;SDS011;65945;53.148;17.956;2023-03-03T14:51:23;13.30;;;6.10;;
77010;SDS011;65945;53.148;17.956;2023-03-03T14:53:52;8.40;;;3.80;;
77010;SDS011;65945;53.148;17.956;2023-03-03T14:58:52;9.30;;;4.70;;
77010;SDS011;65945;53.148;17.956;2023-03-03T15:01:29;12.80;;;6.40;;
77010;SDS011;65945;53.148;17.956;2023-03-03T15:04:02;17.10;;;6.70;;
77010;SDS011;65945;53.148;17.956;2023-03-03T15:11:56;14.50;;;6.50;;
77010;SDS011;65945;53.148;17.956;2023-03-03T15:14:31;18.60;;;7.60;;
77010;SDS011;65945;53.148;17.956;2023-03-03T15:20:20;17.90;;;7.10;;
77010;SDS011;65945;53.148;17.956;2023-03-03T15:29:23;26.90;;;9.90;;
77010;SDS011;65945;53.148;17.956;2023-03-03T15:37:55;20.30;;;10.10;;
77010;SDS011;65945;53.148;17.956;2023-03-03T15:40:29;25.70;;;9.20;;
77010;SDS011;65945;53.148;17.956;2023-03-03T16:05:33;28.20;;;15.80;;
77010;SDS011;65945;53.148;17.956;2023-03-03T16:08:12;30.20;;;13.20;;
77010;SDS011;65945;53.148;17.956;2023-03-03T16:20:01;61.40;;;22.00;;
77010;SDS011;65945;53.148;17.956;2023-03-03T16:28:18;25.00;;;11.20;;
77010;SDS011;65945;53.148;17.956;2023-03-03T16:30:56;28.70;;;14.10;;
77010;SDS011;65945;53.148;17.956;2023-03-03T16:34:13;22.40;;;11.20;;
77010;SDS011;65945;53.148;17.956;2023-03-03T16:36:37;20.50;;;10.60;;
77010;SDS011;65945;53.148;17.956;2023-03-03T16:39:29;23.80;;;10.10;;
77010;SDS011;65945;53.148;17.956;2023-03-03T16:42:01;24.80;;;12.40;;
77010;SDS011;65945;53.148;17.956;2023-03-03T16:56:23;26.50;;;10.70;;
77010;SDS011;65945;53.148;17.956;2023-03-03T17:09:52;18.30;;;8.60;;
77010;SDS011;65945;53.148;17.956;2023-03-03T17:15:27;27.90;;;12.20;;
77010;SDS011;65945;53.148;17.956;2023-03-03T17:18:10;20.80;;;8.60;;
77010;SDS011;65945;53.148;17.956;2023-03-03T17:26:05;27.90;;;12.60;;
77010;SDS011;65945;53.148;17.956;2023-03-03T17:28:57;32.50;;;12.30;;
77010;SDS011;65945;53.148;17.956;2023-03-03T17:31:40;22.60;;;10.40;;
77010;SDS011;65945;53.148;17.956;2023-03-03T17:43:22;25.40;;;11.40;;
77010;SDS011;65945;53.148;17.956;2023-03-03T17:45:55;22.90;;;9.00;;
77010;SDS011;65945;53.148;17.956;2023-03-03T17:48:31;24.20;;;10.60;;
77010;SDS011;65945;53.148;17.956;2023-03-03T17:51:21;26.60;;;10.60;;
77010;SDS011;65945;53.148;17.956;2023-03-03T17:54:22;23.90;;;11.30;;
77010;SDS011;65945;53.148;17.956;2023-03-03T18:02:59;32.80;;;13.90;;
77010;SDS011;65945;53.148;17.956;2023-03-03T18:06:12;29.40;;;12.80;;
77010;SDS011;65945;53.148;17.956;2023-03-03T18:08:50;28.10;;;13.30;;
77010;SDS011;65945;53.148;17.956;2023-03-03T18:17:07;26.40;;;11.50;;
77010;SDS011;65945;53.148;17.956;2023-03-03T18:22:44;29.80;;;11.80;;
77010;SDS011;65945;53.148;17.956;2023-03-03T18:25:13;23.40;;;10.10;;
77010;SDS011;65945;53.148;17.956;2023-03-03T18:31:14;22.60;;;8.00;;
77010;SDS011;65945;53.148;17.956;2023-03-03T18:34:06;24.10;;;9.40;;
77010;SDS011;65945;53.148;17.956;2023-03-03T18:38:54;27.10;;;10.50;;
77010;SDS011;65945;53.148;17.956;2023-03-03T18:41:29;27.40;;;11.30;;
77010;SDS011;65945;53.148;17.956;2023-03-03T18:44:01;30.50;;;11.80;;
77010;SDS011;65945;53.148;17.956;2023-03-03T18:46:53;19.10;;;8.80;;
77010;SDS011;65945;53.148;17.956;2023-03-03T18:52:16;29.10;;;11.20;;
77010;SDS011;65945;53.148;17.956;2023-03-03T18:55:00;28.50;;;11.50;;
77010;SDS011;65945;53.148;17.956;2023-03-03T18:58:00;30.30;;;12.40;;
77010;SDS011;65945;53.148;17.956;2023-03-03T19:00:48;17.70;;;8.10;;
77010;SDS011;65945;53.148;17.956;2023-03-03T19:03:24;19.50;;;8.70;;
77010;SDS011;65945;53.148;17.956;2023-03-03T19:05:54;29.60;;;12.00;;
77010;SDS011;65945;53.148;17.956;2023-03-03T19:08:26;22.20;;;9.80;;
77010;SDS011;65945;53.148;17.956;2023-03-03T19:11:35;22.60;;;8.90;;
77010;SDS011;65945;53.148;17.956;2023-03-03T19:16:51;16.40;;;8.00;;
77010;SDS011;65945;53.148;17.956;2023-03-03T19:19:45;22.80;;;10.40;;
77010;SDS011;65945;53.148;17.956;2023-03-03T19:22:28;19.20;;;8.30;;
77010;SDS011;65945;53.148;17.956;2023-03-03T19:25:40;23.00;;;9.90;;
77010;SDS011;65945;53.148;17.956;2023-03-03T19:28:08;22.30;;;9.90;;
77010;SDS011;65945;53.148;17.956;2023-03-03T19:30:48;20.00;;;8.40;;
77010;SDS011;65945;53.148;17.956;2023-03-03T19:44:06;22.70;;;9.70;;
77010;SDS011;65945;53.148;17.956;2023-03-03T19:52:17;28.40;;;13.00;;
77010;SDS011;65945;53.148;17.956;2023-03-03T19:54:52;33.80;;;14.60;;
77010;SDS011;65945;53.148;17.956;2023-03-03T20:00:45;28.90;;;12.40;;
77010;SDS011;65945;53.148;17.956;2023-03-03T20:03:22;30.80;;;12.90;;
77010;SDS011;65945;53.148;17.956;2023-03-03T20:06:11;16.40;;;7.70;;
77010;SDS011;65945;53.148;17.956;2023-03-03T20:09:01;25.40;;;12.40;;
77010;SDS011;65945;53.148;17.956;2023-03-03T20:11:42;18.10;;;9.00;;
77010;SDS011;65945;53.148;17.956;2023-03-03T20:25:54;22.80;;;10.00;;
77010;SDS011;65945;53.148;17.956;2023-03-03T20:52:57;24.90;;;10.00;;
77010;SDS011;65945;53.148;17.956;2023-03-03T20:55:56;17.80;;;8.90;;
77010;SDS011;65945;53.148;17.956;2023-03-03T20:58:43;16.70;;;7.80;;
77010;SDS011;65945;53.148;17.956;2023-03-03T21:01:44;24.20;;;11.40;;
77010;SDS011;65945;53.148;17.956;2023-03-03T21:04:28;26.10;;;10.90;;
77010;SDS011;65945;53.148;17.956;2023-03-03T21:06:56;21.50;;;9.50;;
77010;SDS011;65945;53.148;17.956;2023-03-03T21:12:00;24.60;;;10.50;;
77010;SDS011;65945;53.148;17.956;2023-03-03T21:14:29;22.50;;;10.50;;
77010;SDS011;65945;53.148;17.956;2023-03-03T21:17:00;23.70;;;11.00;;
77010;SDS011;65945;53.148;17.956;2023-03-03T21:20:16;22.40;;;10.60;;
77010;SDS011;65945;53.148;17.956;2023-03-03T21:22:45;18.90;;;8.80;;
77010;SDS011;65945;53.148;17.956;2023-03-03T21:25:40;25.10;;;11.60;;